Tecate, CA (91987)

4:29 AM PDT on August 25, 2016 (GMT -0700)
PROTECCION CIVIL BC (TECATE) | | Change Station

Elev 1739 ft 32.57 °N, 116.61 °W | Updated 2 minutes ago

Overcast
Overcast
67.0 °F
Feels Like 67.0 °F
N
0.0
Wind Variable Wind from South
Gusts 2.0 mph

Today
High -- | Low -- °F
--% Chance of Precip.
Yesterday
High -- | Low -- °F
Precip. -- in
Pressure 29.94 in
Visibility 9.0 miles
Clouds Overcast 700 ft
Dew Point 53 °F
Humidity 62%
Rainfall 0.00 in
Snow Depth Not available.
6:17 AM 7:19 PM
Waning Gibbous, 46% visible
METAR KSDM 251053Z AUTO 27004KT 9SM OVC007 19/17 A2995 RMK AO2 SLP136 T01890167
Pressure 29.94 in
Visibility 9.0 miles
Clouds Overcast 700 ft
Dew Point 53 °F
Humidity 62%
Rainfall 0.00 in
Snow Depth Not available.
6:17 AM 7:19 PM
Waning Gibbous, 46% visible
METAR KSDM 251053Z AUTO 27004KT 9SM OVC007 19/17 A2995 RMK AO2 SLP136 T01890167

10-Day Weather Forecast

Almanac

Astronomy

Aug. 25, 2016 Rise Set
Actual Time
Civil Twilight
Nautical Twilight
Astronomical Twilight
Moon
Length of Visible Light
Length of Day
Tomorrow will be .
, % of the Moon is Illuminated

Today's Extremes

State Highs State Lows

Community

WunderPhotos

Upload Photos

1,934,822 photos uploaded!

WunderBlog® & News

Nearby

Air Quality

  Air Quality AQ Index Pollutant
Not available.

Snow Depth

Station Depth Elevation

Earthquake Activity

City Distance Mag. Time & Date
Minimum magnitude displayed is 2.5.

Coastal Water Temperatures

Place Temperature

Stations

Nearby Weather Stations

Station Location Temp. Windchill Dew Point Humidity Wind Precip. Elev Updated Type
                   

Watches & Warnings

There are currently no watches in effect.